createdAt,value
2019-03-01T00:03:40.314Z,98969.45
2019-03-01T00:09:55.001Z,98969.05
2019-03-01T00:16:16.212Z,98955.84
2019-03-01T00:22:28.545Z,98933.89
2019-03-01T00:28:49.568Z,98934.29
2019-03-01T00:35:16.775Z,98931.72
2019-03-01T00:41:48.486Z,98930.67
2019-03-01T00:47:53.145Z,98917.48
2019-03-01T00:53:57.874Z,98913.18
2019-03-01T01:00:02.609Z,98911.41
2019-03-01T01:06:07.202Z,98903.26
2019-03-01T01:12:11.918Z,98903.35
2019-03-01T01:18:16.508Z,98897.19
2019-03-01T01:24:21.073Z,98884.19
2019-03-01T01:30:25.632Z,98879.16
2019-03-01T01:36:31.140Z,98869.77
2019-03-01T01:42:35.706Z,98874.10
2019-03-01T01:48:40.262Z,98860.88
2019-03-01T01:54:44.862Z,98860.53
2019-03-01T02:00:49.582Z,98860.84
2019-03-01T02:06:54.199Z,98865.28
2019-03-01T02:13:00.021Z,98855.75
2019-03-01T02:19:04.652Z,98847.21
2019-03-01T02:25:13.450Z,98846.12
2019-03-01T02:31:18.922Z,98830.43
2019-03-01T02:37:23.524Z,98832.76
2019-03-01T02:43:28.363Z,98829.52
2019-03-01T02:49:33.298Z,98827.23
2019-03-01T02:55:37.856Z,98820.46
2019-03-01T03:01:42.417Z,98818.61
2019-03-01T03:07:54.564Z,98816.27
2019-03-01T03:13:59.257Z,98810.19
2019-03-01T03:20:04.593Z,98809.70
2019-03-01T03:26:09.465Z,98808.03
2019-03-01T03:32:14.188Z,98806.44
2019-03-01T03:38:18.834Z,98807.84
2019-03-01T03:44:23.473Z,98801.36
2019-03-01T03:50:28.829Z,98796.02
2019-03-01T03:56:34.019Z,98801.59
2019-03-01T04:02:38.897Z,98799.14
2019-03-01T04:08:43.600Z,98789.23
2019-03-01T04:14:48.284Z,98789.54
2019-03-01T04:20:52.946Z,98784.39
2019-03-01T04:26:57.545Z,98778.95
2019-03-01T04:33:02.364Z,98779.26
2019-03-01T04:39:08.508Z,98776.46
2019-03-01T04:45:16.088Z,98772.97
2019-03-01T04:51:20.737Z,98765.05
2019-03-01T04:57:25.442Z,98763.49
2019-03-01T05:03:30.029Z,98758.36
2019-03-01T05:09:34.606Z,98757.61
2019-03-01T05:15:39.168Z,98758.03
2019-03-01T05:21:43.751Z,98760.71
2019-03-01T05:27:48.321Z,98753.00
2019-03-01T05:33:52.879Z,98753.00
2019-03-01T05:39:57.524Z,98753.41
2019-03-01T05:46:02.128Z,98764.54
2019-03-01T05:52:06.762Z,98764.73
2019-03-01T05:58:32.976Z,98771.00
2019-03-01T06:04:48.208Z,98768.75
2019-03-01T06:10:57.838Z,98774.81
2019-03-01T06:17:36.696Z,98781.61
2019-03-01T06:23:57.687Z,98773.63
2019-03-01T06:30:38.567Z,98769.03
2019-03-01T06:37:03.006Z,98761.72
2019-03-01T06:43:18.176Z,98755.06
2019-03-01T06:49:24.493Z,98760.30
2019-03-01T06:55:36.700Z,98761.23
2019-03-01T07:01:42.006Z,98767.31
2019-03-01T07:07:46.577Z,98771.41
2019-03-01T07:13:51.145Z,98769.67
2019-03-01T07:19:55.702Z,98776.07
2019-03-01T07:26:00.745Z,98765.66
2019-03-01T07:32:05.320Z,98762.66
2019-03-01T07:38:09.872Z,98768.23
2019-03-01T07:44:14.435Z,98770.41
2019-03-01T07:50:19.091Z,98792.13
2019-03-01T07:56:23.709Z,98794.70
2019-03-01T08:02:29.826Z,98798.09
2019-03-01T08:08:34.811Z,98802.64
2019-03-01T08:14:40.681Z,98810.66
2019-03-01T08:20:45.330Z,98821.35
2019-03-01T08:26:49.945Z,98823.93
2019-03-01T08:32:54.600Z,98824.66
2019-03-01T08:39:00.816Z,98828.56
2019-03-01T08:45:10.133Z,98822.20
2019-03-01T08:51:14.821Z,98827.23
2019-03-01T08:57:22.579Z,98836.38
2019-03-01T09:03:36.271Z,98838.97
2019-03-01T09:09:40.815Z,98835.94
2019-03-01T09:15:46.175Z,98826.67
2019-03-01T09:21:52.034Z,98827.78
2019-03-01T09:27:57.635Z,98829.99
2019-03-01T09:34:02.537Z,98831.34
2019-03-01T09:40:07.907Z,98833.78
2019-03-01T09:46:12.534Z,98831.98
2019-03-01T09:52:17.112Z,98831.61
2019-03-01T09:58:22.067Z,98832.05
2019-03-01T10:04:26.640Z,98837.22
2019-03-01T10:10:34.320Z,98836.97
2019-03-01T10:16:38.963Z,98839.20
2019-03-01T10:22:43.610Z,98841.76
2019-03-01T10:28:48.245Z,98846.25
2019-03-01T10:34:52.876Z,98855.31
2019-03-01T10:40:57.576Z,98856.20
2019-03-01T10:47:02.284Z,98854.82
2019-03-01T10:53:07.046Z,98852.84
2019-03-01T10:59:11.681Z,98846.30
2019-03-01T11:05:16.393Z,98857.84
2019-03-01T11:11:21.110Z,98861.64
2019-03-01T11:17:25.680Z,98874.79
2019-03-01T11:23:30.407Z,98870.58
2019-03-01T11:29:35.121Z,98873.71
2019-03-01T11:35:39.743Z,98871.14
2019-03-01T11:41:46.867Z,98885.92
2019-03-01T11:47:51.526Z,98883.73
2019-03-01T11:53:56.119Z,98889.94
2019-03-01T12:00:01.059Z,98898.53
2019-03-01T12:06:05.695Z,98903.78
2019-03-01T12:12:10.264Z,98919.03
2019-03-01T12:18:14.818Z,98934.08
2019-03-01T12:24:19.389Z,98940.68
2019-03-01T12:30:28.203Z,98943.70
2019-03-01T12:36:32.904Z,98947.71
2019-03-01T12:42:37.489Z,98942.14
2019-03-01T12:48:42.061Z,98945.48
2019-03-01T12:54:46.703Z,98952.59
2019-03-01T13:00:51.282Z,98962.11
2019-03-01T13:06:55.853Z,98970.34
2019-03-01T13:13:02.059Z,98969.00
2019-03-01T13:19:06.932Z,98969.95
2019-03-01T13:25:12.522Z,98979.48
2019-03-01T13:31:17.071Z,98983.62
2019-03-01T13:37:21.655Z,98994.61
2019-03-01T13:43:27.349Z,99000.13
2019-03-01T13:49:32.678Z,99013.91
2019-03-01T13:55:37.242Z,99022.31
2019-03-01T14:01:42.173Z,99031.53
2019-03-01T14:07:48.081Z,99039.88
2019-03-01T14:13:52.639Z,99052.84
2019-03-01T14:19:57.613Z,99054.41
2019-03-01T14:26:02.296Z,99062.15
2019-03-01T14:32:07.851Z,99068.92
2019-03-01T14:38:12.422Z,99074.88
2019-03-01T14:44:17.044Z,99081.18
2019-03-01T14:50:24.363Z,99090.02
2019-03-01T14:56:34.724Z,99090.94
2019-03-01T15:02:56.287Z,99089.74
2019-03-01T15:09:01.019Z,99088.84
2019-03-01T15:15:10.480Z,99095.86
2019-03-01T15:21:15.886Z,99094.63
2019-03-01T15:27:20.467Z,99101.80
2019-03-01T15:33:25.029Z,99102.40
2019-03-01T15:39:29.947Z,99104.80
2019-03-01T15:45:36.722Z,99108.56
2019-03-01T15:51:41.401Z,99127.33
2019-03-01T15:57:45.976Z,99134.52
2019-03-01T16:03:50.682Z,99133.13
2019-03-01T16:09:58.296Z,99149.53
2019-03-01T16:16:02.015Z,99158.86
2019-03-01T16:22:06.711Z,99169.62
2019-03-01T16:28:11.440Z,99175.16
2019-03-01T16:34:17.391Z,99178.01
2019-03-01T16:40:22.089Z,99176.67
2019-03-01T16:46:28.466Z,99186.83
2019-03-01T16:52:33.105Z,99192.85
2019-03-01T16:58:37.688Z,99197.12
2019-03-01T17:04:42.255Z,99214.45
2019-03-01T17:10:46.837Z,99220.75
2019-03-01T17:16:51.418Z,99234.67
2019-03-01T17:22:55.995Z,99248.33
2019-03-01T17:29:03.085Z,99267.17
2019-03-01T17:35:10.994Z,99271.05
2019-03-01T17:41:15.633Z,99291.00
2019-03-01T17:47:20.255Z,99302.16
2019-03-01T17:53:24.922Z,99306.66
2019-03-01T17:59:30.074Z,99311.79
2019-03-01T18:05:37.053Z,99313.81
2019-03-01T18:11:44.564Z,99309.83
2019-03-01T18:17:47.459Z,99319.98
2019-03-01T18:23:52.179Z,99331.28
2019-03-01T18:29:56.901Z,99345.91
2019-03-01T18:36:01.517Z,99358.53
2019-03-01T18:42:06.162Z,99357.06
2019-03-01T18:48:10.862Z,99355.55
2019-03-01T18:54:15.447Z,99359.03
2019-03-01T19:00:35.673Z,99368.34
2019-03-01T19:06:39.448Z,99379.82
2019-03-01T19:12:44.828Z,99378.50
2019-03-01T19:18:51.286Z,99376.16
2019-03-01T19:24:56.806Z,99379.64
2019-03-01T19:31:01.866Z,99379.30
2019-03-01T19:37:06.445Z,99372.02
2019-03-01T19:43:11.151Z,99381.65
2019-03-01T19:49:15.691Z,99387.12
2019-03-01T19:55:20.488Z,99402.76
2019-03-01T20:01:25.396Z,99407.39
2019-03-01T20:07:30.534Z,99410.08
2019-03-01T20:13:35.245Z,99416.02
2019-03-01T20:19:39.834Z,99417.84
2019-03-01T20:25:47.560Z,99417.48
2019-03-01T20:31:50.881Z,99420.50
2019-03-01T20:37:55.573Z,99430.77
2019-03-01T20:44:01.146Z,99432.13
2019-03-01T20:50:11.904Z,99421.97
2019-03-01T20:56:16.987Z,99427.34
2019-03-01T21:02:21.853Z,99423.16
2019-03-01T21:08:29.066Z,99425.30
2019-03-01T21:14:33.050Z,99428.63
2019-03-01T21:20:37.980Z,99436.78
2019-03-01T21:26:42.550Z,99446.22
2019-03-01T21:32:50.728Z,99452.50
2019-03-01T21:38:53.382Z,99456.34
2019-03-01T21:44:58.084Z,99447.67
2019-03-01T21:51:03.371Z,99446.82
2019-03-01T21:57:07.950Z,99444.19
2019-03-01T22:03:12.582Z,99447.03
2019-03-01T22:09:20.612Z,99454.69
2019-03-01T22:15:29.377Z,99451.68
2019-03-01T22:21:34.273Z,99455.92
2019-03-01T22:27:38.869Z,99450.55
2019-03-01T22:33:43.439Z,99456.66
2019-03-01T22:39:51.481Z,99456.16
2019-03-01T22:45:55.054Z,99460.19
2019-03-01T22:51:59.877Z,99462.17
2019-03-01T22:58:05.681Z,99462.50
2019-03-01T23:04:11.169Z,99457.00
2019-03-01T23:10:18.442Z,99461.05
2019-03-01T23:16:22.252Z,99460.86
2019-03-01T23:22:26.830Z,99450.52
2019-03-01T23:28:31.810Z,99451.90
2019-03-01T23:34:38.927Z,99456.84
2019-03-01T23:40:42.664Z,99453.81
2019-03-01T23:46:47.282Z,99457.30
2019-03-01T23:52:54.948Z,99470.28
2019-03-01T23:58:59.747Z,99469.94
